sensor_id;sensor_type;location;lat;lon;timestamp;pressure;altitude;pressure_sealevel;temperature;humidity
12594;BME280;6362;50.208;9.182;2023-02-20T00:02:22;100883.50;;;6.60;78.68
12594;BME280;6362;50.208;9.182;2023-02-20T00:04:48;100887.81;;;6.59;78.63
12594;BME280;6362;50.208;9.182;2023-02-20T00:07:13;100873.91;;;6.54;78.98
12594;BME280;6362;50.208;9.182;2023-02-20T00:09:38;100865.22;;;6.51;79.14
12594;BME280;6362;50.208;9.182;2023-02-20T00:12:04;100869.41;;;6.46;79.37
12594;BME280;6362;50.208;9.182;2023-02-20T00:14:29;100873.75;;;6.48;79.00
12594;BME280;6362;50.208;9.182;2023-02-20T00:16:55;100871.13;;;6.45;79.33
12594;BME280;6362;50.208;9.182;2023-02-20T00:19:20;100873.91;;;6.54;79.17
12594;BME280;6362;50.208;9.182;2023-02-20T00:21:47;100868.47;;;6.44;79.34
12594;BME280;6362;50.208;9.182;2023-02-20T00:24:13;100869.94;;;6.32;79.94
12594;BME280;6362;50.208;9.182;2023-02-20T00:26:46;100863.09;;;6.34;79.63
12594;BME280;6362;50.208;9.182;2023-02-20T00:29:15;100867.97;;;6.22;79.65
12594;BME280;6362;50.208;9.182;2023-02-20T00:31:40;100874.59;;;6.13;80.02
12594;BME280;6362;50.208;9.182;2023-02-20T00:34:06;100871.81;;;6.05;80.13
12594;BME280;6362;50.208;9.182;2023-02-20T00:36:31;100869.88;;;5.96;80.13
12594;BME280;6362;50.208;9.182;2023-02-20T00:38:56;100870.41;;;5.85;80.24
12594;BME280;6362;50.208;9.182;2023-02-20T00:41:22;100875.41;;;5.78;80.18
12594;BME280;6362;50.208;9.182;2023-02-20T00:43:47;100871.84;;;5.75;80.07
12594;BME280;6362;50.208;9.182;2023-02-20T00:46:13;100864.84;;;5.71;80.49
12594;BME280;6362;50.208;9.182;2023-02-20T00:48:39;100873.47;;;5.71;79.86
12594;BME280;6362;50.208;9.182;2023-02-20T00:51:04;100867.25;;;5.63;79.82
12594;BME280;6362;50.208;9.182;2023-02-20T00:53:30;100874.81;;;5.57;80.05
12594;BME280;6362;50.208;9.182;2023-02-20T00:55:55;100865.16;;;5.50;80.31
12594;BME280;6362;50.208;9.182;2023-02-20T00:58:21;100868.47;;;5.46;80.39
12594;BME280;6362;50.208;9.182;2023-02-20T01:00:46;100873.53;;;5.43;80.51
12594;BME280;6362;50.208;9.182;2023-02-20T01:03:12;100870.94;;;5.41;80.62
12594;BME280;6362;50.208;9.182;2023-02-20T01:05:38;100875.81;;;5.32;80.54
12594;BME280;6362;50.208;9.182;2023-02-20T01:08:04;100884.13;;;5.22;80.95
12594;BME280;6362;50.208;9.182;2023-02-20T01:10:29;100896.88;;;5.17;80.98
12594;BME280;6362;50.208;9.182;2023-02-20T01:12:55;100899.31;;;5.13;81.39
12594;BME280;6362;50.208;9.182;2023-02-20T01:15:20;100894.81;;;5.06;81.56
12594;BME280;6362;50.208;9.182;2023-02-20T01:17:46;100895.56;;;5.01;81.72
12594;BME280;6362;50.208;9.182;2023-02-20T01:20:11;100879.97;;;4.98;82.20
12594;BME280;6362;50.208;9.182;2023-02-20T01:22:37;100888.66;;;5.00;82.68
12594;BME280;6362;50.208;9.182;2023-02-20T01:25:02;100887.81;;;5.01;82.76
12594;BME280;6362;50.208;9.182;2023-02-20T01:27:28;100886.94;;;5.01;83.11
12594;BME280;6362;50.208;9.182;2023-02-20T01:29:54;100874.22;;;5.07;82.95
12594;BME280;6362;50.208;9.182;2023-02-20T01:32:19;100865.66;;;5.08;82.35
12594;BME280;6362;50.208;9.182;2023-02-20T01:34:44;100873.44;;;5.10;82.62
12594;BME280;6362;50.208;9.182;2023-02-20T01:37:13;100870.97;;;5.13;82.41
12594;BME280;6362;50.208;9.182;2023-02-20T01:39:39;100865.00;;;5.15;82.30
12594;BME280;6362;50.208;9.182;2023-02-20T01:42:07;100868.41;;;5.14;82.16
12594;BME280;6362;50.208;9.182;2023-02-20T01:44:37;100867.66;;;5.17;81.58
12594;BME280;6362;50.208;9.182;2023-02-20T01:47:08;100871.13;;;5.19;81.64
12594;BME280;6362;50.208;9.182;2023-02-20T01:49:40;100865.13;;;5.18;81.83
12594;BME280;6362;50.208;9.182;2023-02-20T01:52:18;100856.38;;;5.13;81.69
12594;BME280;6362;50.208;9.182;2023-02-20T01:54:50;100860.66;;;5.13;81.55
12594;BME280;6362;50.208;9.182;2023-02-20T01:57:20;100848.63;;;5.13;80.95
12594;BME280;6362;50.208;9.182;2023-02-20T01:59:48;100858.72;;;5.06;81.10
12594;BME280;6362;50.208;9.182;2023-02-20T02:02:14;100854.47;;;5.08;80.70
12594;BME280;6362;50.208;9.182;2023-02-20T02:04:40;100843.16;;;5.02;81.25
12594;BME280;6362;50.208;9.182;2023-02-20T02:07:07;100848.31;;;5.02;81.06
12594;BME280;6362;50.208;9.182;2023-02-20T02:09:50;100846.56;;;5.01;80.96
12594;BME280;6362;50.208;9.182;2023-02-20T02:12:17;100840.63;;;5.04;80.81
12594;BME280;6362;50.208;9.182;2023-02-20T02:14:42;100831.94;;;5.00;80.48
12594;BME280;6362;50.208;9.182;2023-02-20T02:25:30;100834.13;;;4.88;80.95
12594;BME280;6362;50.208;9.182;2023-02-20T02:28:06;100838.38;;;4.86;81.06
12594;BME280;6362;50.208;9.182;2023-02-20T02:40:00;100838.38;;;4.86;81.22
12594;BME280;6362;50.208;9.182;2023-02-20T02:42:50;100830.69;;;4.88;81.04
12594;BME280;6362;50.208;9.182;2023-02-20T02:45:24;100828.91;;;4.85;81.60
12594;BME280;6362;50.208;9.182;2023-02-20T02:47:59;100824.72;;;4.89;81.48
12594;BME280;6362;50.208;9.182;2023-02-20T02:50:33;100820.28;;;4.85;81.77
12594;BME280;6362;50.208;9.182;2023-02-20T02:53:02;100815.28;;;4.89;82.31
12594;BME280;6362;50.208;9.182;2023-02-20T02:55:30;100825.47;;;4.86;81.87
12594;BME280;6362;50.208;9.182;2023-02-20T02:57:58;100818.66;;;4.88;81.97
12594;BME280;6362;50.208;9.182;2023-02-20T03:03:08;100813.41;;;4.84;81.75
12594;BME280;6362;50.208;9.182;2023-02-20T03:05:44;100815.97;;;4.84;82.54
12594;BME280;6362;50.208;9.182;2023-02-20T03:08:26;100801.28;;;4.81;82.44
12594;BME280;6362;50.208;9.182;2023-02-20T03:10:59;100806.25;;;4.75;83.15
12594;BME280;6362;50.208;9.182;2023-02-20T03:13:29;100810.50;;;4.73;83.13
12594;BME280;6362;50.208;9.182;2023-02-20T03:16:18;100804.31;;;4.68;83.04
12594;BME280;6362;50.208;9.182;2023-02-20T03:18:45;100799.88;;;4.62;83.62
12594;BME280;6362;50.208;9.182;2023-02-20T03:21:16;100811.00;;;4.61;83.41
12594;BME280;6362;50.208;9.182;2023-02-20T03:23:45;100809.00;;;4.53;83.42
12594;BME280;6362;50.208;9.182;2023-02-20T03:26:16;100820.16;;;4.52;84.03
12594;BME280;6362;50.208;9.182;2023-02-20T03:28:49;100815.81;;;4.50;84.49
12594;BME280;6362;50.208;9.182;2023-02-20T03:31:30;100820.78;;;4.44;84.46
12594;BME280;6362;50.208;9.182;2023-02-20T03:34:07;100819.34;;;4.54;84.47
12594;BME280;6362;50.208;9.182;2023-02-20T03:37:06;100813.97;;;4.46;84.29
12594;BME280;6362;50.208;9.182;2023-02-20T03:39:56;100815.69;;;4.46;84.65
12594;BME280;6362;50.208;9.182;2023-02-20T03:42:46;100825.16;;;4.47;85.16
12594;BME280;6362;50.208;9.182;2023-02-20T03:45:34;100823.41;;;4.46;84.80
12594;BME280;6362;50.208;9.182;2023-02-20T03:48:05;100816.50;;;4.45;84.89
12594;BME280;6362;50.208;9.182;2023-02-20T03:50:32;100823.34;;;4.44;84.79
12594;BME280;6362;50.208;9.182;2023-02-20T03:52:58;100818.94;;;4.40;84.84
12594;BME280;6362;50.208;9.182;2023-02-20T03:55:24;100837.69;;;4.36;84.85
12594;BME280;6362;50.208;9.182;2023-02-20T03:57:54;100844.75;;;4.43;84.13
12594;BME280;6362;50.208;9.182;2023-02-20T04:00:26;100834.38;;;4.40;83.90
12594;BME280;6362;50.208;9.182;2023-02-20T04:02:56;100836.97;;;4.40;84.16
12594;BME280;6362;50.208;9.182;2023-02-20T04:05:26;100846.28;;;4.37;84.41
12594;BME280;6362;50.208;9.182;2023-02-20T04:10:43;100841.66;;;4.27;84.13
12594;BME280;6362;50.208;9.182;2023-02-20T04:13:12;100841.53;;;4.22;84.21
12594;BME280;6362;50.208;9.182;2023-02-20T04:15:40;100828.59;;;4.20;84.30
12594;BME280;6362;50.208;9.182;2023-02-20T04:18:14;100831.06;;;4.17;84.47
12594;BME280;6362;50.208;9.182;2023-02-20T04:20:42;100836.22;;;4.17;84.51
12594;BME280;6362;50.208;9.182;2023-02-20T04:23:12;100836.97;;;4.15;84.25
12594;BME280;6362;50.208;9.182;2023-02-20T04:28:23;100834.38;;;4.13;85.12
12594;BME280;6362;50.208;9.182;2023-02-20T04:30:49;100835.13;;;4.11;84.50
12594;BME280;6362;50.208;9.182;2023-02-20T04:33:16;100829.78;;;4.05;84.58
12594;BME280;6362;50.208;9.182;2023-02-20T04:35:42;100831.31;;;4.00;84.60
12594;BME280;6362;50.208;9.182;2023-02-20T04:38:07;100833.97;;;4.01;84.98
12594;BME280;6362;50.208;9.182;2023-02-20T04:40:33;100830.44;;;3.99;85.15
12594;BME280;6362;50.208;9.182;2023-02-20T04:42:58;100832.78;;;3.91;84.69
12594;BME280;6362;50.208;9.182;2023-02-20T04:45:24;100829.22;;;3.88;85.03
12594;BME280;6362;50.208;9.182;2023-02-20T04:47:49;100829.84;;;3.81;85.27
12594;BME280;6362;50.208;9.182;2023-02-20T04:50:27;100828.91;;;3.79;85.28
12594;BME280;6362;50.208;9.182;2023-02-20T04:52:53;100822.75;;;3.74;84.99
12594;BME280;6362;50.208;9.182;2023-02-20T04:55:19;100830.47;;;3.74;84.71
12594;BME280;6362;50.208;9.182;2023-02-20T04:57:48;100825.03;;;3.66;85.18
12594;BME280;6362;50.208;9.182;2023-02-20T05:00:16;100829.25;;;3.64;85.06
12594;BME280;6362;50.208;9.182;2023-02-20T05:02:42;100830.09;;;3.63;85.30
12594;BME280;6362;50.208;9.182;2023-02-20T05:05:25;100826.47;;;3.58;85.00
12594;BME280;6362;50.208;9.182;2023-02-20T05:10:21;100840.03;;;3.54;85.54
12594;BME280;6362;50.208;9.182;2023-02-20T05:12:46;100832.28;;;3.52;85.49
12594;BME280;6362;50.208;9.182;2023-02-20T05:15:13;100828.78;;;3.50;85.19
12594;BME280;6362;50.208;9.182;2023-02-20T05:17:38;100826.22;;;3.50;85.20
12594;BME280;6362;50.208;9.182;2023-02-20T05:20:05;100813.34;;;3.50;85.48
12594;BME280;6362;50.208;9.182;2023-02-20T05:22:31;100824.59;;;3.54;84.99
12594;BME280;6362;50.208;9.182;2023-02-20T05:24:57;100819.38;;;3.51;84.90
12594;BME280;6362;50.208;9.182;2023-02-20T05:27:24;100814.72;;;3.40;85.58
12594;BME280;6362;50.208;9.182;2023-02-20T05:29:52;100810.44;;;3.41;85.11
12594;BME280;6362;50.208;9.182;2023-02-20T05:32:20;100806.19;;;3.41;85.32
12594;BME280;6362;50.208;9.182;2023-02-20T05:34:46;100798.47;;;3.41;85.19
12594;BME280;6362;50.208;9.182;2023-02-20T05:37:13;100802.78;;;3.42;85.23
12594;BME280;6362;50.208;9.182;2023-02-20T05:39:42;100793.31;;;3.41;85.14
12594;BME280;6362;50.208;9.182;2023-02-20T05:42:08;100803.44;;;3.37;84.99
12594;BME280;6362;50.208;9.182;2023-02-20T05:44:37;100807.50;;;3.30;85.89
12594;BME280;6362;50.208;9.182;2023-02-20T05:47:03;100810.28;;;3.36;85.62
12594;BME280;6362;50.208;9.182;2023-02-20T05:49:32;100809.19;;;3.30;85.38
12594;BME280;6362;50.208;9.182;2023-02-20T05:51:59;100798.78;;;3.27;85.62
12594;BME280;6362;50.208;9.182;2023-02-20T05:54:25;100783.31;;;3.25;85.50
12594;BME280;6362;50.208;9.182;2023-02-20T05:56:50;100801.44;;;3.28;85.92
12594;BME280;6362;50.208;9.182;2023-02-20T05:59:19;100788.63;;;3.30;86.10
12594;BME280;6362;50.208;9.182;2023-02-20T06:01:45;100793.78;;;3.30;86.12
12594;BME280;6362;50.208;9.182;2023-02-20T06:04:11;100803.41;;;3.35;86.00
12594;BME280;6362;50.208;9.182;2023-02-20T06:06:38;100807.06;;;3.42;86.38
12594;BME280;6362;50.208;9.182;2023-02-20T06:09:07;100795.06;;;3.42;86.31
12594;BME280;6362;50.208;9.182;2023-02-20T06:11:33;100787.53;;;3.47;86.49
12594;BME280;6362;50.208;9.182;2023-02-20T06:14:00;100788.97;;;3.64;86.72
12594;BME280;6362;50.208;9.182;2023-02-20T06:16:27;100790.78;;;3.92;87.21
12594;BME280;6362;50.208;9.182;2023-02-20T06:18:54;100790.88;;;4.49;89.35
12594;BME280;6362;50.208;9.182;2023-02-20T06:21:20;100793.00;;;4.63;86.30
12594;BME280;6362;50.208;9.182;2023-02-20T06:23:48;100780.13;;;4.63;87.25
12594;BME280;6362;50.208;9.182;2023-02-20T06:26:14;100791.97;;;4.86;85.05
12594;BME280;6362;50.208;9.182;2023-02-20T06:28:40;100788.84;;;4.96;82.56
12594;BME280;6362;50.208;9.182;2023-02-20T06:31:06;100802.50;;;4.94;83.26
12594;BME280;6362;50.208;9.182;2023-02-20T06:33:32;100802.34;;;5.18;84.41
12594;BME280;6362;50.208;9.182;2023-02-20T06:35:58;100797.56;;;5.32;83.91
12594;BME280;6362;50.208;9.182;2023-02-20T06:38:24;100796.00;;;5.70;82.60
12594;BME280;6362;50.208;9.182;2023-02-20T06:40:50;100800.34;;;5.71;80.42
12594;BME280;6362;50.208;9.182;2023-02-20T06:43:15;100792.22;;;5.55;79.61
12594;BME280;6362;50.208;9.182;2023-02-20T06:45:41;100796.22;;;5.44;79.64
12594;BME280;6362;50.208;9.182;2023-02-20T06:48:07;100797.41;;;5.25;79.84
12594;BME280;6362;50.208;9.182;2023-02-20T06:50:32;100791.91;;;5.13;80.59
12594;BME280;6362;50.208;9.182;2023-02-20T06:52:58;100796.75;;;5.02;81.64
12594;BME280;6362;50.208;9.182;2023-02-20T06:55:23;100793.19;;;4.99;81.33
12594;BME280;6362;50.208;9.182;2023-02-20T06:57:49;100787.00;;;4.92;81.82
12594;BME280;6362;50.208;9.182;2023-02-20T07:00:16;100787.44;;;5.08;82.04
12594;BME280;6362;50.208;9.182;2023-02-20T07:02:41;100795.84;;;5.00;82.14
12594;BME280;6362;50.208;9.182;2023-02-20T07:05:07;100795.16;;;5.06;81.68
12594;BME280;6362;50.208;9.182;2023-02-20T07:07:34;100796.84;;;5.06;81.60
12594;BME280;6362;50.208;9.182;2023-02-20T07:09:59;100786.31;;;4.98;81.84
12594;BME280;6362;50.208;9.182;2023-02-20T07:12:29;100788.91;;;4.99;81.97
12594;BME280;6362;50.208;9.182;2023-02-20T07:14:55;100789.88;;;5.03;81.95
12594;BME280;6362;50.208;9.182;2023-02-20T07:17:23;100796.03;;;5.07;82.27
12594;BME280;6362;50.208;9.182;2023-02-20T07:19:49;100784.88;;;5.08;81.75
12594;BME280;6362;50.208;9.182;2023-02-20T07:22:14;100786.63;;;5.09;82.62
12594;BME280;6362;50.208;9.182;2023-02-20T07:24:40;100794.91;;;5.28;81.79
12594;BME280;6362;50.208;9.182;2023-02-20T07:27:07;100782.06;;;5.30;81.57
12594;BME280;6362;50.208;9.182;2023-02-20T07:29:37;100787.50;;;5.41;81.28
12594;BME280;6362;50.208;9.182;2023-02-20T07:32:05;100786.84;;;5.48;81.00
12594;BME280;6362;50.208;9.182;2023-02-20T07:34:33;100792.16;;;5.54;80.48
12594;BME280;6362;50.208;9.182;2023-02-20T07:36:58;100792.84;;;5.47;80.97
12594;BME280;6362;50.208;9.182;2023-02-20T07:39:24;100786.69;;;5.43;81.38
12594;BME280;6362;50.208;9.182;2023-02-20T07:41:50;100794.72;;;5.54;81.08
12594;BME280;6362;50.208;9.182;2023-02-20T07:44:16;100792.00;;;5.48;80.93
12594;BME280;6362;50.208;9.182;2023-02-20T07:46:41;100798.13;;;5.51;81.35
12594;BME280;6362;50.208;9.182;2023-02-20T07:49:07;100795.81;;;5.62;80.82
12594;BME280;6362;50.208;9.182;2023-02-20T07:51:33;100799.50;;;5.72;80.58
12594;BME280;6362;50.208;9.182;2023-02-20T07:53:59;100794.56;;;5.81;80.71
12594;BME280;6362;50.208;9.182;2023-02-20T07:56:24;100796.88;;;6.02;79.54
12594;BME280;6362;50.208;9.182;2023-02-20T07:58:50;100784.94;;;6.07;79.22
12594;BME280;6362;50.208;9.182;2023-02-20T08:01:16;100786.91;;;6.17;79.02
12594;BME280;6362;50.208;9.182;2023-02-20T08:03:41;100775.03;;;6.25;78.19
12594;BME280;6362;50.208;9.182;2023-02-20T08:06:07;100788.03;;;6.28;78.11
12594;BME280;6362;50.208;9.182;2023-02-20T08:08:32;100789.81;;;6.31;78.68
12594;BME280;6362;50.208;9.182;2023-02-20T08:10:58;100776.19;;;6.38;78.01
12594;BME280;6362;50.208;9.182;2023-02-20T08:13:23;100778.94;;;6.44;78.07
12594;BME280;6362;50.208;9.182;2023-02-20T08:15:49;100777.41;;;6.52;77.26
12594;BME280;6362;50.208;9.182;2023-02-20T08:18:15;100780.88;;;6.54;77.28
12594;BME280;6362;50.208;9.182;2023-02-20T08:20:40;100780.88;;;6.54;77.16
12594;BME280;6362;50.208;9.182;2023-02-20T08:23:15;100777.47;;;6.55;77.38
12594;BME280;6362;50.208;9.182;2023-02-20T08:25:40;100761.00;;;6.50;77.16
12594;BME280;6362;50.208;9.182;2023-02-20T08:28:05;100776.41;;;6.47;77.52
12594;BME280;6362;50.208;9.182;2023-02-20T08:30:31;100758.41;;;6.50;77.45
12594;BME280;6362;50.208;9.182;2023-02-20T08:32:56;100754.97;;;6.50;76.94
12594;BME280;6362;50.208;9.182;2023-02-20T08:35:22;100758.34;;;6.49;77.26
12594;BME280;6362;50.208;9.182;2023-02-20T08:37:49;100760.78;;;6.41;77.75
12594;BME280;6362;50.208;9.182;2023-02-20T08:40:15;100754.03;;;6.48;77.66
12594;BME280;6362;50.208;9.182;2023-02-20T08:42:40;100750.91;;;6.61;76.79
12594;BME280;6362;50.208;9.182;2023-02-20T08:45:07;100757.06;;;6.68;77.01
12594;BME280;6362;50.208;9.182;2023-02-20T08:47:32;100754.47;;;6.68;77.06
12594;BME280;6362;50.208;9.182;2023-02-20T08:49:58;100750.22;;;6.71;76.85
12594;BME280;6362;50.208;9.182;2023-02-20T08:52:23;100740.84;;;6.75;76.93
12594;BME280;6362;50.208;9.182;2023-02-20T08:54:48;100743.63;;;6.84;76.87
12594;BME280;6362;50.208;9.182;2023-02-20T08:57:15;100748.00;;;6.88;76.69
12594;BME280;6362;50.208;9.182;2023-02-20T08:59:41;100748.88;;;6.88;76.36
12594;BME280;6362;50.208;9.182;2023-02-20T09:02:14;100748.03;;;6.90;76.62
12594;BME280;6362;50.208;9.182;2023-02-20T09:04:42;100750.66;;;6.91;76.47
12594;BME280;6362;50.208;9.182;2023-02-20T09:07:09;100749.06;;;6.98;76.71
12594;BME280;6362;50.208;9.182;2023-02-20T09:09:34;100742.22;;;7.00;75.94
12594;BME280;6362;50.208;9.182;2023-02-20T09:12:00;100749.28;;;7.08;76.05
12594;BME280;6362;50.208;9.182;2023-02-20T09:14:25;100745.38;;;7.29;75.63
12594;BME280;6362;50.208;9.182;2023-02-20T09:16:51;100738.78;;;7.46;74.84
12594;BME280;6362;50.208;9.182;2023-02-20T09:19:17;100749.22;;;7.51;74.39
12594;BME280;6362;50.208;9.182;2023-02-20T09:21:45;100746.00;;;7.65;74.83
12594;BME280;6362;50.208;9.182;2023-02-20T09:24:11;100747.00;;;7.72;74.19
12594;BME280;6362;50.208;9.182;2023-02-20T09:26:36;100736.78;;;7.80;73.81
12594;BME280;6362;50.208;9.182;2023-02-20T09:29:02;100749.78;;;7.83;73.92
12594;BME280;6362;50.208;9.182;2023-02-20T09:31:27;100744.56;;;7.81;73.80
12594;BME280;6362;50.208;9.182;2023-02-20T09:33:52;100744.81;;;7.98;73.98
12594;BME280;6362;50.208;9.182;2023-02-20T09:36:18;100740.81;;;8.17;73.15
12594;BME280;6362;50.208;9.182;2023-02-20T09:38:43;100737.56;;;8.32;72.69
12594;BME280;6362;50.208;9.182;2023-02-20T09:46:51;100735.53;;;8.70;70.79
12594;BME280;6362;50.208;9.182;2023-02-20T09:49:24;100740.78;;;8.75;70.71
12594;BME280;6362;50.208;9.182;2023-02-20T09:51:57;100737.34;;;8.76;70.63
12594;BME280;6362;50.208;9.182;2023-02-20T09:54:48;100728.75;;;8.81;70.35
12594;BME280;6362;50.208;9.182;2023-02-20T09:57:19;100739.19;;;8.86;70.11
12594;BME280;6362;50.208;9.182;2023-02-20T09:59:49;100734.50;;;8.57;70.30
12594;BME280;6362;50.208;9.182;2023-02-20T10:02:26;100733.75;;;8.66;70.73
12594;BME280;6362;50.208;9.182;2023-02-20T10:04:56;100733.63;;;8.55;70.70
12594;BME280;6362;50.208;9.182;2023-02-20T10:09:59;100731.25;;;8.72;70.74
12594;BME280;6362;50.208;9.182;2023-02-20T10:18:20;100716.78;;;8.89;70.12
12594;BME280;6362;50.208;9.182;2023-02-20T10:21:13;100720.38;;;9.02;69.63
12594;BME280;6362;50.208;9.182;2023-02-20T10:23:57;100721.47;;;9.22;68.37
12594;BME280;6362;50.208;9.182;2023-02-20T10:26:31;100717.25;;;9.34;68.60
12594;BME280;6362;50.208;9.182;2023-02-20T10:29:09;100714.78;;;9.46;67.80
12594;BME280;6362;50.208;9.182;2023-02-20T10:31:44;100706.38;;;9.74;66.85
12594;BME280;6362;50.208;9.182;2023-02-20T10:34:21;100703.44;;;10.49;64.37
12594;BME280;6362;50.208;9.182;2023-02-20T10:36:55;100698.50;;;11.12;63.18
12594;BME280;6362;50.208;9.182;2023-02-20T10:39:25;100689.81;;;11.20;60.87
12594;BME280;6362;50.208;9.182;2023-02-20T10:41:59;100686.41;;;11.40;61.00
12594;BME280;6362;50.208;9.182;2023-02-20T10:44:46;100675.13;;;11.96;59.63
12594;BME280;6362;50.208;9.182;2023-02-20T10:50:14;100692.06;;;13.28;55.71
12594;BME280;6362;50.208;9.182;2023-02-20T10:52:51;100672.63;;;13.64;54.58
12594;BME280;6362;50.208;9.182;2023-02-20T10:55:25;100671.84;;;13.53;53.50
12594;BME280;6362;50.208;9.182;2023-02-20T10:57:57;100647.50;;;13.43;53.64
12594;BME280;6362;50.208;9.182;2023-02-20T11:00:40;100658.75;;;13.53;53.51
12594;BME280;6362;50.208;9.182;2023-02-20T11:03:15;100645.94;;;13.18;53.33
12594;BME280;6362;50.208;9.182;2023-02-20T11:05:46;100637.25;;;13.13;54.19
12594;BME280;6362;50.208;9.182;2023-02-20T11:08:13;100633.94;;;12.86;54.04
12594;BME280;6362;50.208;9.182;2023-02-20T11:10:46;100626.78;;;13.19;54.04
12594;BME280;6362;50.208;9.182;2023-02-20T11:13:15;100623.97;;;13.48;53.66
12594;BME280;6362;50.208;9.182;2023-02-20T11:15:42;100624.94;;;14.27;51.99
12594;BME280;6362;50.208;9.182;2023-02-20T11:18:22;100620.31;;;14.50;50.45
12594;BME280;6362;50.208;9.182;2023-02-20T11:20:51;100621.00;;;14.65;48.99
12594;BME280;6362;50.208;9.182;2023-02-20T11:23:41;100621.75;;;13.97;50.32
12594;BME280;6362;50.208;9.182;2023-02-20T11:28:44;100602.41;;;14.14;50.73
12594;BME280;6362;50.208;9.182;2023-02-20T11:31:20;100594.97;;;14.56;49.75
12594;BME280;6362;50.208;9.182;2023-02-20T11:33:46;100584.56;;;15.11;49.09
12594;BME280;6362;50.208;9.182;2023-02-20T11:36:16;100579.94;;;15.78;46.65
12594;BME280;6362;50.208;9.182;2023-02-20T11:38:42;100572.69;;;15.91;46.46
12594;BME280;6362;50.208;9.182;2023-02-20T11:44:06;100566.63;;;15.87;46.15
12594;BME280;6362;50.208;9.182;2023-02-20T11:46:32;100568.19;;;16.41;45.98
12594;BME280;6362;50.208;9.182;2023-02-20T11:51:42;100564.31;;;16.97;43.52
12594;BME280;6362;50.208;9.182;2023-02-20T11:54:24;100562.66;;;16.95;43.83
12594;BME280;6362;50.208;9.182;2023-02-20T11:59:41;100536.25;;;16.99;42.39
12594;BME280;6362;50.208;9.182;2023-02-20T12:02:11;100534.78;;;16.47;43.22
12594;BME280;6362;50.208;9.182;2023-02-20T12:04:37;100555.16;;;16.76;43.11
12594;BME280;6362;50.208;9.182;2023-02-20T12:07:42;100544.97;;;16.62;43.36
12594;BME280;6362;50.208;9.182;2023-02-20T12:12:39;100538.25;;;16.49;43.28
12594;BME280;6362;50.208;9.182;2023-02-20T12:15:12;100525.88;;;16.93;42.88
12594;BME280;6362;50.208;9.182;2023-02-20T12:20:45;100518.00;;;18.53;39.49
12594;BME280;6362;50.208;9.182;2023-02-20T12:23:37;100523.38;;;18.50;38.61
12594;BME280;6362;50.208;9.182;2023-02-20T12:29:13;100509.59;;;18.70;38.76
12594;BME280;6362;50.208;9.182;2023-02-20T12:42:58;100488.94;;;20.09;35.60
12594;BME280;6362;50.208;9.182;2023-02-20T12:45:30;100478.44;;;20.54;34.75
12594;BME280;6362;50.208;9.182;2023-02-20T12:48:30;100478.56;;;19.81;35.53
12594;BME280;6362;50.208;9.182;2023-02-20T12:57:11;100454.19;;;20.43;34.75
12594;BME280;6362;50.208;9.182;2023-02-20T13:04:44;100430.72;;;21.61;31.82
12594;BME280;6362;50.208;9.182;2023-02-20T13:07:20;100418.28;;;22.01;31.07
12594;BME280;6362;50.208;9.182;2023-02-20T13:10:06;100426.31;;;21.80;30.33
12594;BME280;6362;50.208;9.182;2023-02-20T13:12:33;100421.16;;;21.96;30.29
12594;BME280;6362;50.208;9.182;2023-02-20T13:20:35;100395.31;;;20.18;32.76
12594;BME280;6362;50.208;9.182;2023-02-20T13:23:26;100404.78;;;20.45;32.82
12594;BME280;6362;50.208;9.182;2023-02-20T13:25:51;100397.22;;;21.00;31.45
12594;BME280;6362;50.208;9.182;2023-02-20T13:28:36;100399.59;;;21.27;32.00
12594;BME280;6362;50.208;9.182;2023-02-20T13:36:45;100372.72;;;21.36;30.54
12594;BME280;6362;50.208;9.182;2023-02-20T13:49:57;100342.69;;;22.49;29.17
12594;BME280;6362;50.208;9.182;2023-02-20T13:55:19;100338.22;;;22.32;29.29
12594;BME280;6362;50.208;9.182;2023-02-20T13:57:54;100334.44;;;22.89;28.53
12594;BME280;6362;50.208;9.182;2023-02-20T14:02:49;100327.97;;;21.11;30.90
12594;BME280;6362;50.208;9.182;2023-02-20T14:05:24;100330.91;;;20.85;30.93
12594;BME280;6362;50.208;9.182;2023-02-20T14:07:50;100309.09;;;19.73;32.87
12594;BME280;6362;50.208;9.182;2023-02-20T14:10:36;100304.25;;;20.06;32.84
12594;BME280;6362;50.208;9.182;2023-02-20T14:13:05;100302.84;;;21.21;31.20
12594;BME280;6362;50.208;9.182;2023-02-20T14:15:45;100302.03;;;20.80;31.51
12594;BME280;6362;50.208;9.182;2023-02-20T14:18:17;100299.00;;;21.08;31.06
12594;BME280;6362;50.208;9.182;2023-02-20T14:20:43;100290.47;;;20.62;31.04
12594;BME280;6362;50.208;9.182;2023-02-20T14:23:28;100290.38;;;20.43;31.65
12594;BME280;6362;50.208;9.182;2023-02-20T14:25:59;100296.50;;;20.66;31.77
12594;BME280;6362;50.208;9.182;2023-02-20T14:28:29;100286.00;;;21.03;30.77
12594;BME280;6362;50.208;9.182;2023-02-20T14:33:41;100287.06;;;19.96;32.81
12594;BME280;6362;50.208;9.182;2023-02-20T14:41:54;100287.69;;;20.86;31.09
12594;BME280;6362;50.208;9.182;2023-02-20T14:44:19;100286.78;;;20.46;31.62
12594;BME280;6362;50.208;9.182;2023-02-20T14:46:46;100278.06;;;20.42;31.58
12594;BME280;6362;50.208;9.182;2023-02-20T14:49:21;100283.22;;;20.45;31.53
12594;BME280;6362;50.208;9.182;2023-02-20T14:51:47;100286.25;;;20.78;30.78
12594;BME280;6362;50.208;9.182;2023-02-20T14:56:39;100279.75;;;20.65;31.26
12594;BME280;6362;50.208;9.182;2023-02-20T14:59:24;100289.72;;;20.99;30.37
12594;BME280;6362;50.208;9.182;2023-02-20T15:02:00;100289.34;;;19.83;31.94
12594;BME280;6362;50.208;9.182;2023-02-20T15:04:28;100280.78;;;19.76;32.29
12594;BME280;6362;50.208;9.182;2023-02-20T15:07:03;100281.09;;;19.45;32.88
12594;BME280;6362;50.208;9.182;2023-02-20T15:09:41;100293.19;;;19.74;32.42
12594;BME280;6362;50.208;9.182;2023-02-20T15:12:19;100289.13;;;19.42;33.36
12594;BME280;6362;50.208;9.182;2023-02-20T15:14:45;100289.00;;;18.98;33.43
12594;BME280;6362;50.208;9.182;2023-02-20T15:17:23;100284.34;;;18.30;35.13
12594;BME280;6362;50.208;9.182;2023-02-20T15:19:49;100284.63;;;18.23;35.75
12594;BME280;6362;50.208;9.182;2023-02-20T15:22:34;100308.03;;;18.30;35.56
12594;BME280;6362;50.208;9.182;2023-02-20T15:25:13;100294.09;;;18.53;34.88
12594;BME280;6362;50.208;9.182;2023-02-20T15:27:39;100287.25;;;18.23;35.18